createdAt,value
2018-11-10T00:00:44.564Z,12.93
2018-11-10T00:01:44.532Z,12.91
2018-11-10T00:02:44.489Z,12.91
2018-11-10T00:03:44.449Z,12.93
2018-11-10T00:04:44.410Z,12.98
2018-11-10T00:05:44.371Z,12.94
2018-11-10T00:06:44.330Z,12.97
2018-11-10T00:07:44.305Z,13.00
2018-11-10T00:08:44.262Z,12.94
2018-11-10T00:09:44.224Z,12.95
2018-11-10T00:10:44.185Z,12.94
2018-11-10T00:11:44.146Z,12.86
2018-11-10T00:12:44.104Z,12.82
2018-11-10T00:13:44.065Z,12.85
2018-11-10T00:14:44.033Z,12.79
2018-11-10T00:15:43.993Z,12.78
2018-11-10T00:16:44.005Z,12.76
2018-11-10T00:17:43.916Z,12.80
2018-11-10T00:18:43.878Z,12.80
2018-11-10T00:19:43.839Z,12.78
2018-11-10T00:20:43.804Z,12.85
2018-11-10T00:21:43.768Z,12.82
2018-11-10T00:22:43.731Z,12.72
2018-11-10T00:23:43.689Z,12.67
2018-11-10T00:24:43.650Z,12.67
2018-11-10T00:25:43.609Z,12.73
2018-11-10T00:26:43.571Z,12.70
2018-11-10T00:27:43.535Z,12.58
2018-11-10T00:28:43.500Z,12.61
2018-11-10T00:29:43.464Z,12.62
2018-11-10T00:30:43.421Z,12.62
2018-11-10T00:31:43.384Z,12.60
2018-11-10T00:32:43.348Z,12.57
2018-11-10T00:33:43.314Z,12.57
2018-11-10T00:34:43.326Z,12.53
2018-11-10T00:35:43.234Z,12.60
2018-11-10T00:36:43.194Z,12.50
2018-11-10T00:37:43.156Z,12.46
2018-11-10T00:38:43.115Z,12.40
2018-11-10T00:39:43.080Z,12.39
2018-11-10T00:40:43.045Z,12.40
2018-11-10T00:41:43.009Z,12.43
2018-11-10T00:42:42.970Z,12.46
2018-11-10T00:43:42.938Z,12.36
2018-11-10T00:44:42.891Z,12.39
2018-11-10T00:45:42.851Z,12.37
2018-11-10T00:46:42.819Z,12.39
2018-11-10T00:47:42.779Z,12.37
2018-11-10T00:48:42.739Z,12.32
2018-11-10T00:49:42.699Z,12.36
2018-11-10T00:50:42.661Z,12.28
2018-11-10T00:51:42.625Z,12.32
2018-11-10T00:52:42.590Z,12.32
2018-11-10T00:53:42.556Z,12.36
2018-11-10T00:54:42.541Z,12.32
2018-11-10T00:55:42.475Z,12.31
2018-11-10T00:56:42.436Z,12.40
2018-11-10T00:57:42.397Z,12.37
2018-11-10T00:58:42.357Z,12.40
2018-11-10T00:59:42.322Z,12.37
2018-11-10T01:00:42.287Z,12.37
2018-11-10T01:01:42.254Z,12.31
2018-11-10T01:02:42.206Z,12.39
2018-11-10T01:03:42.172Z,12.31
2018-11-10T01:04:42.138Z,12.37
2018-11-10T01:05:42.099Z,12.40
2018-11-10T01:06:42.064Z,12.42
2018-11-10T01:07:42.023Z,12.31
2018-11-10T01:08:41.981Z,12.35
2018-11-10T01:09:41.944Z,12.49
2018-11-10T01:10:41.915Z,12.45
2018-11-10T01:11:41.866Z,12.45
2018-11-10T01:12:41.831Z,12.47
2018-11-10T01:13:41.795Z,12.55
2018-11-10T01:14:41.756Z,12.58
2018-11-10T01:15:41.717Z,12.50
2018-11-10T01:16:41.676Z,12.57
2018-11-10T01:17:41.637Z,12.43
2018-11-10T01:18:41.603Z,12.42
2018-11-10T01:19:41.565Z,12.47
2018-11-10T01:20:41.524Z,12.40
2018-11-10T01:21:41.485Z,12.50
2018-11-10T01:22:41.447Z,12.43
2018-11-10T01:23:41.410Z,12.60
2018-11-10T01:24:41.373Z,12.58
2018-11-10T01:25:41.339Z,12.64
2018-11-10T01:26:41.300Z,12.61
2018-11-10T01:27:41.265Z,12.58
2018-11-10T01:28:41.221Z,12.64
2018-11-10T01:29:41.181Z,12.54
2018-11-10T01:30:41.145Z,12.58
2018-11-10T01:31:41.106Z,12.53
2018-11-10T01:32:41.070Z,12.55
2018-11-10T01:33:41.035Z,12.43
2018-11-10T01:34:40.993Z,12.46
2018-11-10T01:35:40.976Z,12.46
2018-11-10T01:36:40.918Z,12.42
2018-11-10T01:37:40.883Z,12.39
2018-11-10T01:38:40.843Z,12.43
2018-11-10T01:39:40.804Z,12.42
2018-11-10T01:40:40.768Z,12.37
2018-11-10T01:41:40.726Z,12.37
2018-11-10T01:42:40.691Z,12.42
2018-11-10T01:43:40.671Z,12.29
2018-11-10T01:44:40.616Z,12.35
2018-11-10T01:45:40.578Z,12.29
2018-11-10T01:46:40.541Z,12.37
2018-11-10T01:47:40.500Z,12.35
2018-11-10T01:48:40.461Z,12.29
2018-11-10T01:49:40.419Z,12.25
2018-11-10T01:50:40.388Z,12.24
2018-11-10T01:51:40.349Z,12.22
2018-11-10T01:52:40.309Z,12.22
2018-11-10T01:53:40.268Z,12.29
2018-11-10T01:54:40.231Z,12.22
2018-11-10T01:55:40.194Z,12.31
2018-11-10T01:56:40.158Z,12.28
2018-11-10T01:57:40.122Z,12.27
2018-11-10T01:58:40.087Z,12.27
2018-11-10T01:59:40.045Z,12.32
2018-11-10T02:00:40.004Z,12.32
2018-11-10T02:01:39.964Z,12.31
2018-11-10T02:02:39.927Z,12.24
2018-11-10T02:03:39.892Z,12.20
2018-11-10T02:04:39.854Z,12.20
2018-11-10T02:05:39.818Z,12.32
2018-11-10T02:06:39.776Z,12.25
2018-11-10T02:07:39.738Z,12.27
2018-11-10T02:08:39.702Z,12.35
2018-11-10T02:09:39.667Z,12.29
2018-11-10T02:10:39.628Z,12.31
2018-11-10T02:11:39.587Z,12.32
2018-11-10T02:12:39.550Z,12.31
2018-11-10T02:13:39.509Z,12.29
2018-11-10T02:14:39.468Z,12.39
2018-11-10T02:15:39.435Z,12.29
2018-11-10T02:16:39.397Z,12.35
2018-11-10T02:17:39.362Z,12.37
2018-11-10T02:18:39.323Z,12.32
2018-11-10T02:19:39.284Z,12.35
2018-11-10T02:20:39.243Z,12.37
2018-11-10T02:21:39.204Z,12.37
2018-11-10T02:22:39.172Z,12.31
2018-11-10T02:23:39.131Z,12.36
2018-11-10T02:24:39.092Z,12.35
2018-11-10T02:25:39.051Z,12.37
2018-11-10T02:26:39.012Z,12.37
2018-11-10T02:27:38.977Z,12.43
2018-11-10T02:28:38.941Z,12.42
2018-11-10T02:29:38.905Z,12.45
2018-11-10T02:30:38.867Z,12.49
2018-11-10T02:31:38.826Z,12.54
2018-11-10T02:32:38.787Z,12.42
2018-11-10T02:33:38.747Z,12.60
2018-11-10T02:34:38.708Z,12.55
2018-11-10T02:35:38.676Z,12.67
2018-11-10T02:36:38.637Z,12.67
2018-11-10T02:37:38.630Z,12.78
2018-11-10T02:38:38.588Z,12.90
2018-11-10T02:39:38.520Z,12.87
2018-11-10T02:40:38.486Z,12.95
2018-11-10T02:41:38.449Z,13.12
2018-11-10T02:42:38.410Z,13.16
2018-11-10T02:43:38.371Z,13.13
2018-11-10T02:44:38.337Z,13.18
2018-11-10T02:45:38.292Z,13.27
2018-11-10T02:46:38.253Z,13.19
2018-11-10T02:47:38.217Z,13.28
2018-11-10T02:48:38.182Z,13.25
2018-11-10T02:49:38.145Z,13.39
2018-11-10T02:50:38.106Z,13.39
2018-11-10T02:51:38.067Z,13.37
2018-11-10T02:52:38.043Z,13.37
2018-11-10T02:53:37.987Z,13.42
2018-11-10T02:54:37.956Z,13.49
2018-11-10T02:55:37.918Z,13.56
2018-11-10T02:56:37.877Z,13.53
2018-11-10T02:57:37.836Z,13.53
2018-11-10T02:58:37.797Z,13.67
2018-11-10T02:59:37.763Z,13.62
2018-11-10T03:00:37.727Z,13.62
2018-11-10T03:01:37.692Z,13.65
2018-11-10T03:02:37.652Z,13.78
2018-11-10T03:03:37.613Z,13.71
2018-11-10T03:04:37.575Z,13.67
2018-11-10T03:05:37.535Z,13.65
2018-11-10T03:06:37.497Z,13.68
2018-11-10T03:07:37.460Z,13.62
2018-11-10T03:08:37.425Z,13.71
2018-11-10T03:09:37.392Z,13.72
2018-11-10T03:10:37.383Z,13.78
2018-11-10T03:11:37.311Z,13.77
2018-11-10T03:12:37.276Z,13.78
2018-11-10T03:13:37.240Z,13.78
2018-11-10T03:14:37.202Z,13.86
2018-11-10T03:15:37.162Z,13.81
2018-11-10T03:16:37.124Z,13.77
2018-11-10T03:17:37.083Z,13.74
2018-11-10T03:18:37.045Z,13.85
2018-11-10T03:19:37.009Z,13.72
2018-11-10T03:20:36.974Z,13.79
2018-11-10T03:21:36.940Z,13.79
2018-11-10T03:22:36.904Z,13.81
2018-11-10T03:23:36.861Z,13.89
2018-11-10T03:24:36.822Z,13.89
2018-11-10T03:25:36.783Z,13.96
2018-11-10T03:26:36.750Z,13.78
2018-11-10T03:27:36.711Z,13.78
2018-11-10T03:28:36.673Z,13.87
2018-11-10T03:29:36.633Z,13.86
2018-11-10T03:30:36.595Z,13.81
2018-11-10T03:31:36.559Z,13.83
2018-11-10T03:32:36.524Z,13.78
2018-11-10T03:33:36.489Z,13.77
2018-11-10T03:34:36.451Z,13.78
2018-11-10T03:35:36.413Z,13.78
2018-11-10T03:36:36.373Z,13.83
2018-11-10T03:37:36.333Z,13.79
2018-11-10T03:38:36.295Z,13.86
2018-11-10T03:39:36.260Z,13.78
2018-11-10T03:40:36.229Z,13.77
2018-11-10T03:41:36.189Z,13.77
2018-11-10T03:42:36.149Z,13.83
2018-11-10T03:43:36.147Z,13.79
2018-11-10T03:44:36.075Z,13.83
2018-11-10T03:45:36.040Z,13.72
2018-11-10T03:46:36.003Z,13.85
2018-11-10T03:47:35.963Z,13.77
2018-11-10T03:48:35.967Z,13.74
2018-11-10T03:49:35.885Z,13.75
2018-11-10T03:50:35.847Z,13.74
2018-11-10T03:51:35.810Z,13.70
2018-11-10T04:06:52.291Z,13.68
2018-11-10T04:07:52.220Z,13.67
2018-11-10T04:08:52.183Z,13.72
2018-11-10T04:09:52.140Z,13.60
2018-11-10T04:10:52.099Z,13.71
2018-11-10T04:11:52.060Z,13.63
2018-11-10T04:12:52.014Z,13.68
2018-11-10T04:13:51.977Z,13.68
2018-11-10T04:14:51.940Z,13.70
2018-11-10T04:15:51.901Z,13.67
2018-11-10T04:16:51.856Z,13.68
2018-11-10T04:17:51.819Z,13.60
2018-11-10T04:18:51.779Z,13.70
2018-11-10T04:19:51.738Z,13.67
2018-11-10T04:20:51.707Z,13.70
2018-11-10T04:21:51.666Z,13.67
2018-11-10T04:22:51.627Z,13.72
2018-11-10T04:23:51.591Z,13.79
2018-11-10T04:24:51.547Z,13.71
2018-11-10T04:25:51.512Z,13.65
2018-11-10T04:26:51.471Z,13.67
2018-11-10T04:27:51.436Z,13.65
2018-11-10T04:28:51.399Z,13.65
2018-11-10T04:29:51.360Z,13.65
2018-11-10T04:30:51.320Z,13.62
2018-11-10T04:31:51.280Z,13.67
2018-11-10T04:32:51.248Z,13.70
2018-11-10T04:33:51.208Z,13.59
2018-11-10T04:34:51.170Z,13.68
2018-11-10T04:35:51.134Z,13.68
2018-11-10T04:36:51.090Z,13.70
2018-11-10T04:37:51.056Z,13.72
2018-11-10T04:38:51.016Z,13.70
2018-11-10T04:39:50.979Z,13.85
2018-11-10T04:40:50.950Z,13.71
2018-11-10T04:41:50.906Z,13.81
2018-11-10T04:42:50.869Z,13.78
2018-11-10T04:43:50.832Z,13.87
2018-11-10T04:44:50.789Z,13.83
2018-11-10T04:45:50.753Z,13.78
2018-11-10T04:46:50.722Z,13.78
2018-11-10T04:47:50.682Z,13.81
2018-11-10T04:48:50.641Z,13.95
2018-11-10T04:49:50.657Z,13.89
2018-11-10T04:50:50.568Z,13.78
2018-11-10T04:51:50.526Z,13.83
2018-11-10T04:52:50.495Z,13.83
2018-11-10T04:53:50.455Z,13.83
2018-11-10T04:54:50.418Z,13.81
2018-11-10T04:55:50.382Z,13.83
2018-11-10T04:56:50.338Z,13.89
2018-11-10T04:57:50.303Z,13.77
2018-11-10T04:58:50.265Z,13.86
2018-11-10T04:59:50.226Z,13.86
2018-11-10T05:00:50.198Z,13.78
2018-11-10T05:01:50.156Z,13.79
2018-11-10T05:02:50.115Z,13.79
2018-11-10T05:03:50.076Z,13.83
2018-11-10T05:04:50.045Z,13.83
2018-11-10T05:05:50.007Z,13.81
2018-11-10T05:06:49.968Z,13.93
2018-11-10T05:07:49.933Z,13.87
2018-11-10T05:08:49.889Z,13.89
2018-11-10T05:09:49.855Z,13.93
2018-11-10T05:10:49.816Z,13.90
2018-11-10T05:11:49.776Z,13.92
2018-11-10T05:12:49.765Z,13.89
2018-11-10T05:13:49.707Z,13.95
2018-11-10T05:14:49.676Z,13.99
2018-11-10T05:15:49.637Z,13.96
2018-11-10T05:16:49.590Z,13.97
2018-11-10T05:17:49.557Z,13.93
2018-11-10T05:18:49.519Z,13.90
2018-11-10T05:19:49.484Z,14.04
2018-11-10T05:20:49.441Z,13.93
2018-11-10T05:21:49.410Z,13.96
2018-11-10T05:22:49.373Z,13.93
2018-11-10T05:23:49.332Z,14.04
2018-11-10T05:24:49.298Z,14.05
2018-11-10T05:25:49.260Z,14.04
2018-11-10T05:26:49.221Z,13.96
2018-11-10T05:27:49.186Z,14.00
2018-11-10T05:28:49.143Z,13.89
2018-11-10T05:29:49.108Z,14.00
2018-11-10T05:30:49.071Z,13.95
2018-11-10T05:31:49.031Z,13.89
2018-11-10T05:32:49.003Z,13.93
2018-11-10T05:33:48.962Z,13.92
2018-11-10T05:34:48.922Z,13.97
2018-11-10T05:35:48.881Z,13.90
2018-11-10T05:36:48.850Z,13.95
2018-11-10T05:37:48.812Z,13.87
2018-11-10T05:38:48.775Z,13.78
2018-11-10T05:39:48.739Z,13.78
2018-11-10T05:40:48.696Z,13.78
2018-11-10T05:41:48.661Z,13.81
2018-11-10T05:42:48.622Z,13.77
2018-11-10T05:43:48.584Z,13.74
2018-11-10T05:44:48.557Z,13.70
2018-11-10T05:45:48.514Z,13.67
2018-11-10T05:46:48.476Z,13.65
2018-11-10T05:47:48.441Z,13.71
2018-11-10T05:48:48.399Z,13.71
2018-11-10T05:49:48.362Z,13.70
2018-11-10T05:50:48.328Z,13.65
2018-11-10T05:51:48.291Z,13.67
2018-11-10T05:52:48.249Z,13.65
2018-11-10T05:53:48.214Z,13.72
2018-11-10T05:54:48.176Z,13.65
2018-11-10T05:55:48.137Z,13.63
2018-11-10T05:56:48.107Z,13.65
2018-11-10T05:57:48.067Z,13.57
2018-11-10T05:58:48.029Z,13.60
2018-11-10T05:59:47.994Z,13.54
2018-11-10T06:00:47.951Z,13.60
2018-11-10T06:01:47.920Z,13.54
2018-11-10T06:02:47.877Z,13.53
2018-11-10T06:03:47.839Z,13.52
2018-11-10T06:04:47.807Z,13.52
2018-11-10T06:05:47.769Z,13.47
2018-11-10T06:06:47.728Z,13.42
2018-11-10T06:07:47.689Z,13.52
2018-11-10T06:08:47.657Z,13.49
2018-11-10T06:09:47.682Z,13.50
2018-11-10T06:10:47.585Z,13.47
2018-11-10T06:11:47.547Z,13.46
2018-11-10T06:12:47.510Z,13.46
2018-11-10T06:13:47.467Z,13.42
2018-11-10T06:14:47.431Z,13.49
2018-11-10T06:15:47.389Z,13.52
2018-11-10T06:16:47.359Z,13.46
2018-11-10T06:17:47.320Z,13.42
2018-11-10T06:18:47.293Z,13.47
2018-11-10T06:19:47.249Z,13.47
2018-11-10T06:20:47.203Z,13.52
2018-11-10T06:21:47.168Z,13.42
2018-11-10T06:22:47.132Z,13.41
2018-11-10T06:23:47.096Z,13.41
2018-11-10T06:24:47.053Z,13.39
2018-11-10T06:25:47.019Z,13.39
2018-11-10T06:26:46.984Z,13.41
2018-11-10T06:27:46.941Z,13.37
2018-11-10T06:28:46.909Z,13.39
2018-11-10T06:29:46.896Z,13.33
2018-11-10T06:30:46.832Z,13.30
2018-11-10T06:31:46.796Z,13.37
2018-11-10T06:32:46.874Z,13.28
2018-11-10T06:33:46.719Z,13.20
2018-11-10T06:34:46.681Z,13.20
2018-11-10T06:35:46.640Z,13.25
2018-11-10T06:36:46.613Z,13.20
2018-11-10T06:37:46.571Z,13.19
2018-11-10T06:38:46.533Z,13.25
2018-11-10T06:39:46.490Z,13.22
2018-11-10T06:40:46.502Z,13.23
2018-11-10T06:41:46.421Z,13.19
2018-11-10T06:42:46.382Z,13.19
2018-11-10T06:43:46.346Z,13.22
2018-11-10T06:44:46.304Z,13.16
2018-11-10T06:45:46.269Z,13.16
2018-11-10T06:46:46.229Z,13.13
2018-11-10T06:47:46.190Z,13.33
2018-11-10T06:48:46.160Z,13.16
2018-11-10T06:49:46.119Z,13.20
2018-11-10T06:50:46.081Z,13.16
2018-11-10T06:51:46.046Z,13.16
2018-11-10T06:52:46.014Z,13.18
2018-11-10T06:53:45.967Z,13.16
2018-11-10T06:54:45.933Z,13.19
2018-11-10T06:55:45.896Z,13.13
2018-11-10T06:56:45.855Z,13.19
2018-11-10T06:57:45.816Z,13.31
2018-11-10T06:58:48.803Z,13.15
2018-11-10T07:00:47.970Z,13.11
2018-11-10T07:11:29.373Z,13.16
2018-11-10T07:12:28.899Z,13.19
2018-11-10T07:13:28.860Z,13.13
2018-11-10T07:14:28.824Z,13.15
2018-11-10T07:15:28.779Z,13.23
2018-11-10T07:16:28.744Z,13.31
2018-11-10T07:17:28.719Z,13.15
2018-11-10T07:18:28.674Z,13.09
2018-11-10T07:19:28.628Z,13.13
2018-11-10T07:20:28.593Z,13.31
2018-11-10T07:21:28.556Z,13.18
2018-11-10T07:22:28.516Z,13.23
2018-11-10T07:23:28.485Z,13.18
2018-11-10T07:24:28.444Z,13.23
2018-11-10T07:25:28.406Z,13.18
2018-11-10T07:26:28.374Z,13.18
2018-11-10T07:27:28.328Z,13.15
2018-11-10T07:28:28.326Z,13.18
2018-11-10T07:29:28.254Z,13.19
2018-11-10T07:30:28.215Z,13.28
2018-11-10T07:31:28.182Z,13.18
2018-11-10T07:32:28.143Z,13.28
2018-11-10T07:33:28.106Z,13.15
2018-11-10T07:34:28.063Z,13.30
2018-11-10T07:35:28.031Z,13.13
2018-11-10T07:36:27.991Z,13.13
2018-11-10T07:37:27.962Z,13.13
2018-11-10T07:38:27.920Z,13.20
2018-11-10T07:39:27.878Z,13.20
2018-11-10T07:40:27.839Z,13.11
2018-11-10T07:41:27.802Z,13.23
2018-11-10T07:42:27.764Z,13.18
2018-11-10T07:43:27.734Z,13.27
2018-11-10T07:44:27.690Z,13.13
2018-11-10T07:45:27.652Z,13.19
2018-11-10T07:46:27.619Z,13.16
2018-11-10T07:47:27.573Z,13.18
2018-11-10T07:48:27.538Z,13.13
2018-11-10T07:49:27.590Z,13.19
2018-11-10T07:50:27.466Z,13.22
2018-11-10T07:51:27.432Z,13.11
2018-11-10T07:52:27.385Z,13.28
2018-11-10T07:53:27.348Z,13.20
2018-11-10T07:54:27.366Z,13.12
2018-11-10T07:55:27.276Z,13.20
2018-11-10T07:56:27.237Z,13.19
2018-11-10T07:57:27.201Z,13.22
2018-11-10T07:58:27.164Z,13.11
2018-11-10T07:59:27.120Z,13.11
2018-11-10T08:00:27.089Z,13.11
2018-11-10T08:01:27.047Z,13.16
2018-11-10T08:02:27.008Z,13.16
2018-11-10T08:03:26.974Z,13.22
2018-11-10T08:04:26.972Z,13.13
2018-11-10T08:05:26.896Z,13.25
2018-11-10T08:06:26.857Z,13.25
2018-11-10T08:07:26.827Z,13.25
2018-11-10T08:08:26.785Z,13.25
2018-11-10T08:09:26.748Z,13.35
2018-11-10T08:10:26.712Z,13.35
2018-11-10T08:11:26.667Z,13.37
2018-11-10T08:12:26.631Z,13.37
2018-11-10T08:13:26.595Z,13.46
2018-11-10T08:14:26.557Z,13.46
2018-11-10T08:15:26.523Z,13.39
2018-11-10T08:16:26.484Z,13.44
2018-11-10T08:17:26.446Z,13.54
2018-11-10T08:18:26.424Z,13.49
2018-11-10T08:19:26.369Z,13.49
2018-11-10T08:20:26.337Z,13.52
2018-11-10T08:21:26.296Z,13.52
2018-11-10T08:22:26.261Z,13.53
2018-11-10T08:23:26.217Z,13.59
2018-11-10T08:24:26.182Z,13.56
2018-11-10T08:25:26.143Z,13.57
2018-11-10T08:26:26.148Z,13.65
2018-11-10T08:27:26.074Z,13.70
2018-11-10T08:28:26.033Z,13.63
2018-11-10T08:29:25.996Z,13.70
2018-11-10T08:30:25.961Z,13.54
2018-11-10T08:31:25.925Z,13.63
2018-11-10T08:32:25.880Z,13.59
2018-11-10T08:33:25.844Z,13.65
2018-11-10T08:34:25.807Z,13.67
2018-11-10T08:35:25.772Z,13.62
2018-11-10T08:36:25.733Z,13.59
2018-11-10T08:37:25.694Z,13.63
2018-11-10T08:38:25.655Z,13.54
2018-11-10T08:39:25.623Z,13.60
2018-11-10T08:40:25.586Z,13.59
2018-11-10T08:41:25.546Z,13.54
2018-11-10T08:42:25.511Z,13.56
2018-11-10T08:43:25.468Z,13.57
2018-11-10T08:44:25.433Z,13.52
2018-11-10T08:45:25.394Z,13.56
2018-11-10T08:46:25.354Z,13.60
2018-11-10T08:47:25.321Z,13.54
2018-11-10T08:48:25.287Z,13.56
2018-11-10T08:49:25.329Z,13.56
2018-11-10T08:50:25.211Z,13.62
2018-11-10T08:51:25.167Z,13.60
2018-11-10T08:52:25.132Z,13.62
2018-11-10T08:53:25.096Z,13.67
2018-11-10T08:54:25.061Z,13.67
2018-11-10T08:55:25.017Z,13.65
2018-11-10T08:56:24.981Z,13.68
2018-11-10T08:57:24.976Z,13.67
2018-11-10T08:58:24.905Z,13.67
2018-11-10T08:59:24.877Z,13.81
2018-11-10T09:00:24.834Z,13.79
2018-11-10T09:01:24.797Z,13.71
2018-11-10T09:02:24.762Z,13.79
2018-11-10T09:03:24.718Z,13.81
2018-11-10T09:04:24.682Z,13.74
2018-11-10T09:05:24.645Z,13.77
2018-11-10T09:06:24.607Z,13.71
2018-11-10T09:07:24.575Z,13.74
2018-11-10T09:08:24.537Z,13.78
2018-11-10T09:09:24.499Z,13.68
2018-11-10T09:10:24.457Z,13.75
2018-11-10T09:11:24.425Z,13.70
2018-11-10T09:12:24.386Z,13.77
2018-11-10T09:13:24.354Z,13.71
2018-11-10T09:14:24.313Z,13.78
2018-11-10T09:15:24.271Z,13.85
2018-11-10T09:16:24.234Z,13.81
2018-11-10T09:17:24.197Z,13.79
2018-11-10T09:18:24.159Z,13.77
2018-11-10T09:19:24.127Z,13.79
2018-11-10T09:20:24.087Z,13.78
2018-11-10T09:21:24.215Z,13.81
2018-11-10T09:22:24.025Z,13.78
2018-11-10T09:23:23.972Z,13.81
2018-11-10T09:24:23.936Z,13.81
2018-11-10T09:25:23.901Z,13.78
2018-11-10T09:26:23.867Z,13.85
2018-11-10T09:27:23.823Z,13.78
2018-11-10T09:28:23.788Z,13.81
2018-11-10T09:29:23.750Z,13.79
2018-11-10T09:30:23.711Z,13.92
2018-11-10T09:31:23.679Z,13.95
2018-11-10T09:32:23.639Z,13.92
2018-11-10T09:33:23.603Z,13.92
2018-11-10T09:34:23.569Z,14.03
2018-11-10T09:35:23.524Z,13.97
2018-11-10T09:36:23.532Z,14.05
2018-11-10T09:37:23.453Z,14.04
2018-11-10T09:38:23.413Z,14.14
2018-11-10T09:39:23.381Z,14.08
2018-11-10T09:40:23.344Z,14.11
2018-11-10T09:41:23.304Z,14.14
2018-11-10T09:42:23.385Z,14.08
2018-11-10T09:43:23.233Z,14.20
2018-11-10T09:44:23.194Z,14.12
2018-11-10T09:45:23.158Z,14.17
2018-11-10T09:46:23.123Z,14.17
2018-11-10T09:47:23.079Z,14.15
2018-11-10T09:48:23.044Z,14.12
2018-11-10T09:49:23.007Z,14.25
2018-11-10T09:50:22.968Z,14.26
2018-11-10T09:51:22.936Z,14.26
2018-11-10T09:52:22.897Z,14.25
2018-11-10T09:53:22.861Z,14.30
2018-11-10T09:54:22.825Z,14.29
2018-11-10T09:55:22.782Z,14.36
2018-11-10T09:56:22.748Z,14.32
2018-11-10T09:57:22.713Z,14.32
2018-11-10T09:58:22.678Z,14.40
2018-11-10T09:59:22.636Z,14.33
2018-11-10T10:00:22.600Z,14.37
2018-11-10T10:01:22.640Z,14.40
2018-11-10T10:02:22.890Z,14.36
2018-11-10T10:03:22.494Z,14.35
2018-11-10T10:04:22.454Z,14.40
2018-11-10T10:05:22.421Z,14.50
2018-11-10T10:20:29.246Z,14.40
2018-11-10T10:21:29.186Z,14.44
2018-11-10T10:22:29.145Z,14.45
2018-11-10T10:23:29.098Z,14.55
2018-11-10T10:24:29.059Z,14.47
2018-11-10T11:06:25.068Z,14.89
2018-11-10T11:07:25.002Z,14.84
2018-11-10T11:08:24.971Z,14.85
2018-11-10T11:09:24.969Z,14.88
2018-11-10T11:10:24.895Z,14.84
2018-11-10T11:11:24.859Z,14.89
2018-11-10T11:36:35.551Z,14.81
2018-11-10T11:37:35.483Z,14.91
2018-11-10T11:39:39.401Z,14.84
2018-11-10T11:40:39.338Z,14.82
2018-11-10T11:42:43.265Z,14.82
2018-11-10T11:43:43.203Z,14.81
2018-11-10T11:45:47.609Z,14.72
2018-11-10T11:46:47.549Z,14.81
2018-11-10T11:47:47.513Z,14.79
2018-11-10T11:48:47.474Z,14.84
2018-11-10T11:49:47.494Z,14.82
2018-11-10T11:50:47.396Z,14.70
2018-11-10T11:51:47.361Z,14.73
2018-11-10T11:52:47.325Z,14.69
2018-11-10T11:53:55.949Z,14.60
2018-11-10T11:55:51.720Z,14.66
2018-11-10T11:56:51.649Z,14.62
2018-11-10T11:57:51.776Z,14.59
2018-11-10T11:58:51.580Z,14.70
2018-11-10T11:59:51.546Z,14.58
2018-11-10T12:00:51.508Z,14.63
2018-11-10T12:01:51.470Z,14.53
2018-11-10T12:02:51.431Z,14.63
2018-11-10T12:03:51.393Z,14.65
2018-11-10T12:04:51.366Z,14.58
2018-11-10T12:05:51.326Z,14.62
2018-11-10T12:06:51.286Z,14.65
2018-11-10T12:07:51.250Z,14.66
2018-11-10T12:08:51.210Z,14.69
2018-11-10T12:09:51.175Z,14.66
2018-11-10T12:10:51.144Z,14.62
2018-11-10T12:11:51.107Z,14.62
2018-11-10T12:12:51.071Z,14.59
2018-11-10T12:13:51.031Z,14.70
2018-11-10T12:14:50.993Z,14.63
2018-11-10T12:15:50.956Z,14.55
2018-11-10T12:16:50.978Z,14.55
2018-11-10T12:17:50.884Z,14.63
2018-11-10T12:18:50.852Z,14.77
2018-11-10T12:19:50.817Z,14.60
2018-11-10T12:20:50.784Z,14.66
2018-11-10T12:21:50.788Z,14.77
2018-11-10T12:22:50.703Z,14.78
2018-11-10T12:23:50.669Z,14.79
2018-11-10T12:24:50.634Z,14.72
2018-11-10T12:25:50.594Z,14.82
2018-11-10T12:26:50.645Z,14.82
2018-11-10T12:27:50.517Z,14.82
2018-11-10T12:28:50.482Z,14.81
2018-11-10T12:29:50.446Z,14.78
2018-11-10T12:30:50.412Z,14.81
2018-11-10T12:31:50.438Z,14.79
2018-11-10T12:32:50.340Z,14.94
2018-11-10T12:33:50.304Z,14.88
2018-11-10T12:34:50.264Z,14.84
2018-11-10T12:35:50.227Z,14.88
2018-11-10T12:36:50.197Z,14.99
2018-11-10T12:37:50.158Z,14.96
2018-11-10T12:38:50.152Z,14.99
2018-11-10T12:39:50.080Z,14.96
2018-11-10T12:40:50.045Z,14.99
2018-11-10T12:41:50.010Z,15.00
2018-11-10T12:42:49.975Z,14.99
2018-11-10T12:43:49.945Z,15.06
2018-11-10T12:44:49.904Z,15.07
2018-11-10T12:45:49.867Z,15.14
2018-11-10T12:46:49.833Z,15.09
2018-11-10T12:47:49.790Z,15.11
2018-11-10T12:48:49.761Z,15.24
2018-11-10T12:49:49.719Z,15.19
2018-11-10T12:50:49.685Z,15.24
2018-11-10T12:51:49.652Z,15.25
2018-11-10T12:52:49.612Z,15.24
2018-11-10T12:53:49.574Z,15.25
2018-11-10T12:54:49.562Z,15.27
2018-11-10T12:55:49.552Z,15.27
2018-11-10T12:56:49.469Z,15.35
2018-11-10T12:57:49.457Z,15.27
2018-11-10T12:58:49.435Z,15.22
2018-11-10T12:59:49.355Z,15.18
2018-11-10T13:00:49.321Z,15.35
2018-11-10T13:01:49.289Z,15.21
2018-11-10T13:02:49.251Z,15.19
2018-11-10T13:03:49.217Z,15.19
2018-11-10T13:04:49.180Z,15.17
2018-11-10T13:05:49.143Z,15.18
2018-11-10T13:06:49.106Z,15.24
2018-11-10T13:07:49.067Z,15.14
2018-11-10T13:08:49.036Z,15.10
2018-11-10T13:09:48.998Z,15.03
2018-11-10T13:10:49.028Z,15.06
2018-11-10T13:11:49.072Z,15.14
2018-11-10T13:12:48.887Z,15.06
2018-11-10T13:13:48.869Z,15.10
2018-11-10T13:14:48.818Z,15.09
2018-11-10T13:15:48.784Z,15.03
2018-11-10T13:16:48.747Z,15.03
2018-11-10T13:17:48.773Z,15.09
2018-11-10T13:18:48.672Z,15.15
2018-11-10T13:19:48.633Z,15.11
2018-11-10T13:20:48.609Z,15.09
2018-11-10T13:21:48.570Z,15.06
2018-11-10T13:22:48.529Z,15.18
2018-11-10T13:23:48.496Z,15.09
2018-11-10T13:24:48.455Z,15.15
2018-11-10T13:25:48.419Z,15.09
2018-11-10T13:26:48.384Z,15.15
2018-11-10T13:27:48.351Z,15.10
2018-11-10T13:28:48.316Z,15.04
2018-11-10T13:29:48.276Z,15.10
2018-11-10T13:30:48.245Z,15.09
2018-11-10T13:31:48.219Z,15.09
2018-11-10T13:32:48.164Z,15.15
2018-11-10T13:33:48.132Z,15.09
2018-11-10T13:34:48.096Z,15.06
2018-11-10T13:35:48.067Z,15.14
2018-11-10T13:36:48.025Z,15.11
2018-11-10T13:37:48.005Z,15.11
2018-11-10T13:38:47.971Z,15.10
2018-11-10T13:39:47.911Z,15.10
2018-11-10T13:40:47.892Z,15.04
2018-11-10T13:41:47.843Z,15.07
2018-11-10T13:42:47.803Z,15.15
2018-11-10T13:43:47.854Z,15.11
2018-11-10T13:44:47.730Z,15.15
2018-11-10T13:45:47.695Z,15.06
2018-11-10T13:46:47.662Z,15.11
2018-11-10T13:47:47.628Z,15.11
2018-11-10T13:48:47.592Z,15.10
2018-11-10T13:49:47.553Z,15.15
2018-11-10T13:50:47.696Z,15.02
2018-11-10T13:51:47.737Z,15.04
2018-11-10T13:52:47.767Z,14.96
2018-11-10T13:53:47.409Z,14.99
2018-11-10T13:54:47.372Z,15.02
2018-11-10T13:55:47.383Z,14.96
2018-11-10T13:56:47.295Z,14.99
2018-11-10T13:57:47.265Z,14.92
2018-11-10T13:58:47.229Z,14.85
2018-11-10T13:59:47.193Z,14.91
2018-11-10T14:00:47.159Z,14.88
2018-11-10T14:01:47.118Z,14.85
2018-11-10T14:02:47.081Z,14.91
2018-11-10T14:03:47.043Z,14.96
2018-11-10T14:04:47.005Z,14.82
2018-11-10T14:05:46.975Z,14.79
2018-11-10T14:06:46.940Z,14.68
2018-11-10T14:07:46.903Z,14.72
2018-11-10T14:08:46.866Z,14.78
2018-11-10T14:09:46.831Z,14.69
2018-11-10T14:10:46.791Z,14.79
2018-11-10T14:11:46.754Z,14.79
2018-11-10T14:12:46.891Z,14.78
2018-11-10T14:13:46.683Z,14.79
2018-11-10T14:14:46.645Z,14.79
2018-11-10T14:15:46.606Z,14.69
2018-11-10T14:16:46.569Z,14.73
2018-11-10T14:17:46.535Z,14.68
2018-11-10T14:18:46.503Z,14.70
2018-11-10T14:19:46.468Z,14.69
2018-11-10T14:20:46.479Z,14.77
2018-11-10T14:21:46.391Z,14.70
2018-11-10T14:22:46.353Z,14.73
2018-11-10T14:23:46.316Z,14.68
2018-11-10T14:24:46.289Z,14.69
2018-11-10T14:25:46.243Z,14.73
2018-11-10T14:26:46.208Z,14.73
2018-11-10T14:27:46.176Z,14.69
2018-11-10T14:28:46.132Z,14.70
2018-11-10T14:29:46.097Z,14.58
2018-11-10T14:30:46.064Z,14.63
2018-11-10T14:31:46.029Z,14.62
2018-11-10T14:32:45.993Z,14.73
2018-11-10T14:33:45.951Z,14.73
2018-11-10T14:34:45.915Z,14.68
2018-11-10T14:35:45.879Z,14.68
2018-11-10T14:36:45.838Z,14.73
2018-11-10T14:37:45.817Z,14.78
2018-11-10T14:38:45.769Z,14.70
2018-11-10T14:39:45.735Z,14.78
2018-11-10T14:40:45.700Z,14.78